sensor_id;sensor_type;location;lat;lon;timestamp;temperature;humidity
59148;DHT22;44930;52.878;6.168;2023-01-15T00:01:00;7.00;99.90
59148;DHT22;44930;52.878;6.168;2023-01-15T00:05:52;7.30;99.90
59148;DHT22;44930;52.878;6.168;2023-01-15T00:08:18;7.30;99.90
59148;DHT22;44930;52.878;6.168;2023-01-15T00:13:09;7.20;99.90
59148;DHT22;44930;52.878;6.168;2023-01-15T00:18:01;7.20;99.90
59148;DHT22;44930;52.878;6.168;2023-01-15T00:20:27;7.20;99.90
59148;DHT22;44930;52.878;6.168;2023-01-15T00:22:53;7.30;99.90
59148;DHT22;44930;52.878;6.168;2023-01-15T00:25:19;7.30;99.90
59148;DHT22;44930;52.878;6.168;2023-01-15T00:28:03;7.30;99.90
59148;DHT22;44930;52.878;6.168;2023-01-15T00:30:28;7.20;99.90
59148;DHT22;44930;52.878;6.168;2023-01-15T00:32:56;7.10;99.90
59148;DHT22;44930;52.878;6.168;2023-01-15T00:35:23;7.20;99.90
59148;DHT22;44930;52.878;6.168;2023-01-15T00:37:49;7.10;99.90
59148;DHT22;44930;52.878;6.168;2023-01-15T00:40:16;7.30;99.90
59148;DHT22;44930;52.878;6.168;2023-01-15T00:42:42;7.20;99.90
59148;DHT22;44930;52.878;6.168;2023-01-15T00:45:09;7.30;99.90
59148;DHT22;44930;52.878;6.168;2023-01-15T00:47:42;6.90;99.90
59148;DHT22;44930;52.878;6.168;2023-01-15T00:50:14;7.20;99.90
59148;DHT22;44930;52.878;6.168;2023-01-15T00:52:40;7.10;99.90
59148;DHT22;44930;52.878;6.168;2023-01-15T00:55:07;7.20;99.90
59148;DHT22;44930;52.878;6.168;2023-01-15T00:57:33;7.30;99.90
59148;DHT22;44930;52.878;6.168;2023-01-15T00:59:59;7.30;99.90
59148;DHT22;44930;52.878;6.168;2023-01-15T01:02:24;7.20;99.90
59148;DHT22;44930;52.878;6.168;2023-01-15T01:04:50;7.20;99.90
59148;DHT22;44930;52.878;6.168;2023-01-15T01:07:16;7.20;99.90
59148;DHT22;44930;52.878;6.168;2023-01-15T01:09:42;7.30;99.90
59148;DHT22;44930;52.878;6.168;2023-01-15T01:12:08;7.30;99.90
59148;DHT22;44930;52.878;6.168;2023-01-15T01:14:34;7.40;99.90
59148;DHT22;44930;52.878;6.168;2023-01-15T01:17:00;7.40;99.90
59148;DHT22;44930;52.878;6.168;2023-01-15T01:19:26;7.40;99.90
59148;DHT22;44930;52.878;6.168;2023-01-15T01:21:52;7.50;99.90
59148;DHT22;44930;52.878;6.168;2023-01-15T01:24:20;7.20;99.90
59148;DHT22;44930;52.878;6.168;2023-01-15T01:26:46;7.20;99.90
59148;DHT22;44930;52.878;6.168;2023-01-15T01:29:14;7.30;99.90
59148;DHT22;44930;52.878;6.168;2023-01-15T01:31:40;7.30;99.90
59148;DHT22;44930;52.878;6.168;2023-01-15T01:34:05;7.30;99.90
59148;DHT22;44930;52.878;6.168;2023-01-15T01:36:33;6.90;99.90
59148;DHT22;44930;52.878;6.168;2023-01-15T01:39:00;7.20;99.90
59148;DHT22;44930;52.878;6.168;2023-01-15T01:41:27;7.20;99.90
59148;DHT22;44930;52.878;6.168;2023-01-15T01:44:00;7.00;99.90
59148;DHT22;44930;52.878;6.168;2023-01-15T01:46:28;7.10;99.90
59148;DHT22;44930;52.878;6.168;2023-01-15T01:48:59;7.10;99.90
59148;DHT22;44930;52.878;6.168;2023-01-15T01:51:28;7.50;99.90
59148;DHT22;44930;52.878;6.168;2023-01-15T01:53:57;7.30;99.90
59148;DHT22;44930;52.878;6.168;2023-01-15T01:56:24;7.30;99.90
59148;DHT22;44930;52.878;6.168;2023-01-15T01:58:52;7.00;99.90
59148;DHT22;44930;52.878;6.168;2023-01-15T02:01:18;7.20;99.90
59148;DHT22;44930;52.878;6.168;2023-01-15T02:03:44;7.10;99.90
59148;DHT22;44930;52.878;6.168;2023-01-15T02:08:37;7.30;99.90
59148;DHT22;44930;52.878;6.168;2023-01-15T02:11:05;7.40;99.90
59148;DHT22;44930;52.878;6.168;2023-01-15T02:16:32;7.10;99.90
59148;DHT22;44930;52.878;6.168;2023-01-15T02:22:03;7.30;99.90
59148;DHT22;44930;52.878;6.168;2023-01-15T02:27:14;7.40;99.90
59148;DHT22;44930;52.878;6.168;2023-01-15T02:29:49;7.30;99.90
59148;DHT22;44930;52.878;6.168;2023-01-15T02:32:37;7.30;99.90
59148;DHT22;44930;52.878;6.168;2023-01-15T02:35:10;7.20;99.90
59148;DHT22;44930;52.878;6.168;2023-01-15T02:37:40;7.30;99.90
59148;DHT22;44930;52.878;6.168;2023-01-15T02:40:10;7.30;99.90
59148;DHT22;44930;52.878;6.168;2023-01-15T02:42:36;7.30;99.90
59148;DHT22;44930;52.878;6.168;2023-01-15T02:45:05;7.40;99.90
59148;DHT22;44930;52.878;6.168;2023-01-15T02:47:34;7.20;99.90
59148;DHT22;44930;52.878;6.168;2023-01-15T02:50:09;7.30;99.90
59148;DHT22;44930;52.878;6.168;2023-01-15T02:52:40;7.30;99.90
59148;DHT22;44930;52.878;6.168;2023-01-15T02:55:11;7.30;99.90
59148;DHT22;44930;52.878;6.168;2023-01-15T02:57:40;7.00;99.90
59148;DHT22;44930;52.878;6.168;2023-01-15T03:00:10;6.80;99.90
59148;DHT22;44930;52.878;6.168;2023-01-15T03:02:53;7.40;99.90
59148;DHT22;44930;52.878;6.168;2023-01-15T03:05:21;7.30;99.90
59148;DHT22;44930;52.878;6.168;2023-01-15T03:13:14;7.10;99.90
59148;DHT22;44930;52.878;6.168;2023-01-15T03:15:51;7.20;99.90
59148;DHT22;44930;52.878;6.168;2023-01-15T03:21:13;7.40;99.90
59148;DHT22;44930;52.878;6.168;2023-01-15T03:23:46;7.10;99.90
59148;DHT22;44930;52.878;6.168;2023-01-15T03:26:12;7.30;99.90
59148;DHT22;44930;52.878;6.168;2023-01-15T03:28:39;7.10;99.90
59148;DHT22;44930;52.878;6.168;2023-01-15T03:31:05;7.00;99.90
59148;DHT22;44930;52.878;6.168;2023-01-15T03:36:01;7.20;99.90
59148;DHT22;44930;52.878;6.168;2023-01-15T03:38:29;7.00;99.90
59148;DHT22;44930;52.878;6.168;2023-01-15T03:41:12;7.20;99.90
59148;DHT22;44930;52.878;6.168;2023-01-15T03:46:42;7.10;99.90
59148;DHT22;44930;52.878;6.168;2023-01-15T03:57:05;7.00;99.90
59148;DHT22;44930;52.878;6.168;2023-01-15T03:59:35;7.10;99.90
59148;DHT22;44930;52.878;6.168;2023-01-15T04:02:05;7.10;99.90
59148;DHT22;44930;52.878;6.168;2023-01-15T04:04:32;7.00;99.90
59148;DHT22;44930;52.878;6.168;2023-01-15T04:06:58;7.00;99.90
59148;DHT22;44930;52.878;6.168;2023-01-15T04:09:25;7.10;99.90
59148;DHT22;44930;52.878;6.168;2023-01-15T04:11:51;7.00;99.90
59148;DHT22;44930;52.878;6.168;2023-01-15T04:14:17;7.00;99.90
59148;DHT22;44930;52.878;6.168;2023-01-15T04:16:42;7.10;99.90
59148;DHT22;44930;52.878;6.168;2023-01-15T04:19:08;7.20;99.90
59148;DHT22;44930;52.878;6.168;2023-01-15T04:21:34;7.10;99.90
59148;DHT22;44930;52.878;6.168;2023-01-15T04:23:59;6.90;99.90
59148;DHT22;44930;52.878;6.168;2023-01-15T04:26:25;7.10;99.90
59148;DHT22;44930;52.878;6.168;2023-01-15T04:28:50;7.10;99.90
59148;DHT22;44930;52.878;6.168;2023-01-15T04:31:16;7.00;99.90
59148;DHT22;44930;52.878;6.168;2023-01-15T04:33:41;7.20;99.90
59148;DHT22;44930;52.878;6.168;2023-01-15T04:36:07;7.10;99.90
59148;DHT22;44930;52.878;6.168;2023-01-15T04:38:36;7.00;99.90
59148;DHT22;44930;52.878;6.168;2023-01-15T04:41:03;7.00;99.90
59148;DHT22;44930;52.878;6.168;2023-01-15T04:43:48;7.10;99.90
59148;DHT22;44930;52.878;6.168;2023-01-15T04:46:37;7.00;99.90
59148;DHT22;44930;52.878;6.168;2023-01-15T04:51:30;7.00;99.90
59148;DHT22;44930;52.878;6.168;2023-01-15T04:53:56;6.90;99.90
59148;DHT22;44930;52.878;6.168;2023-01-15T04:58:48;6.90;99.90
59148;DHT22;44930;52.878;6.168;2023-01-15T05:01:16;6.80;99.90
59148;DHT22;44930;52.878;6.168;2023-01-15T05:03:42;7.10;99.90
59148;DHT22;44930;52.878;6.168;2023-01-15T05:06:08;6.90;99.90
59148;DHT22;44930;52.878;6.168;2023-01-15T05:08:34;6.80;99.90
59148;DHT22;44930;52.878;6.168;2023-01-15T05:11:01;6.80;99.90
59148;DHT22;44930;52.878;6.168;2023-01-15T05:13:28;6.70;99.90
59148;DHT22;44930;52.878;6.168;2023-01-15T05:15:54;6.80;99.90
59148;DHT22;44930;52.878;6.168;2023-01-15T05:20:46;6.70;99.90
59148;DHT22;44930;52.878;6.168;2023-01-15T05:23:11;6.80;99.90
59148;DHT22;44930;52.878;6.168;2023-01-15T05:25:37;6.80;99.90
59148;DHT22;44930;52.878;6.168;2023-01-15T05:28:03;6.80;99.90
59148;DHT22;44930;52.878;6.168;2023-01-15T05:30:29;6.70;99.90
59148;DHT22;44930;52.878;6.168;2023-01-15T05:32:54;6.60;99.90
59148;DHT22;44930;52.878;6.168;2023-01-15T05:35:20;6.70;99.90
59148;DHT22;44930;52.878;6.168;2023-01-15T05:37:46;6.70;99.90
59148;DHT22;44930;52.878;6.168;2023-01-15T05:42:37;6.60;99.90
59148;DHT22;44930;52.878;6.168;2023-01-15T05:45:03;6.60;99.90
59148;DHT22;44930;52.878;6.168;2023-01-15T05:47:29;6.70;99.90
59148;DHT22;44930;52.878;6.168;2023-01-15T05:49:54;6.70;99.90
59148;DHT22;44930;52.878;6.168;2023-01-15T05:52:20;6.60;99.90
59148;DHT22;44930;52.878;6.168;2023-01-15T05:54:48;6.60;99.90
59148;DHT22;44930;52.878;6.168;2023-01-15T05:57:14;6.80;99.90
59148;DHT22;44930;52.878;6.168;2023-01-15T05:59:40;6.60;99.90
59148;DHT22;44930;52.878;6.168;2023-01-15T06:02:06;6.80;99.90
59148;DHT22;44930;52.878;6.168;2023-01-15T06:04:31;6.80;99.90
59148;DHT22;44930;52.878;6.168;2023-01-15T06:06:57;6.60;99.90
59148;DHT22;44930;52.878;6.168;2023-01-15T06:09:23;6.70;99.90
59148;DHT22;44930;52.878;6.168;2023-01-15T06:11:49;6.80;99.90
59148;DHT22;44930;52.878;6.168;2023-01-15T06:14:15;6.50;99.90
59148;DHT22;44930;52.878;6.168;2023-01-15T06:16:41;6.60;99.90
59148;DHT22;44930;52.878;6.168;2023-01-15T06:19:07;6.60;99.90
59148;DHT22;44930;52.878;6.168;2023-01-15T06:21:34;6.70;99.90
59148;DHT22;44930;52.878;6.168;2023-01-15T06:24:00;6.70;99.90
59148;DHT22;44930;52.878;6.168;2023-01-15T06:26:26;6.70;99.90
59148;DHT22;44930;52.878;6.168;2023-01-15T06:28:52;6.60;99.90
59148;DHT22;44930;52.878;6.168;2023-01-15T06:31:19;6.60;99.90
59148;DHT22;44930;52.878;6.168;2023-01-15T06:36:17;6.80;99.90
59148;DHT22;44930;52.878;6.168;2023-01-15T06:38:43;6.60;99.90
59148;DHT22;44930;52.878;6.168;2023-01-15T06:41:15;6.60;99.90
59148;DHT22;44930;52.878;6.168;2023-01-15T06:43:59;6.50;99.90
59148;DHT22;44930;52.878;6.168;2023-01-15T06:46:46;6.60;99.90
59148;DHT22;44930;52.878;6.168;2023-01-15T06:49:32;6.60;99.90
59148;DHT22;44930;52.878;6.168;2023-01-15T06:51:57;6.70;99.90
59148;DHT22;44930;52.878;6.168;2023-01-15T06:54:23;6.70;99.90
59148;DHT22;44930;52.878;6.168;2023-01-15T06:56:49;6.50;99.90
59148;DHT22;44930;52.878;6.168;2023-01-15T07:01:40;6.30;99.90
59148;DHT22;44930;52.878;6.168;2023-01-15T07:04:06;6.30;99.90
59148;DHT22;44930;52.878;6.168;2023-01-15T07:08:57;6.50;99.90
59148;DHT22;44930;52.878;6.168;2023-01-15T07:11:23;6.50;99.90
59148;DHT22;44930;52.878;6.168;2023-01-15T07:13:48;6.40;99.90
59148;DHT22;44930;52.878;6.168;2023-01-15T07:16:14;6.60;99.90
59148;DHT22;44930;52.878;6.168;2023-01-15T07:18:53;6.10;99.90
59148;DHT22;44930;52.878;6.168;2023-01-15T07:21:19;6.40;99.90
59148;DHT22;44930;52.878;6.168;2023-01-15T07:23:44;6.40;99.90
59148;DHT22;44930;52.878;6.168;2023-01-15T07:26:10;6.40;99.90
59148;DHT22;44930;52.878;6.168;2023-01-15T07:28:36;6.30;99.90
59148;DHT22;44930;52.878;6.168;2023-01-15T07:31:01;6.50;99.90
59148;DHT22;44930;52.878;6.168;2023-01-15T07:33:27;6.20;99.90
59148;DHT22;44930;52.878;6.168;2023-01-15T07:35:52;6.30;99.90
59148;DHT22;44930;52.878;6.168;2023-01-15T07:38:18;6.30;99.90
59148;DHT22;44930;52.878;6.168;2023-01-15T07:40:43;6.30;99.90
59148;DHT22;44930;52.878;6.168;2023-01-15T07:43:10;6.40;99.90
59148;DHT22;44930;52.878;6.168;2023-01-15T07:48:38;6.30;99.90
59148;DHT22;44930;52.878;6.168;2023-01-15T07:51:23;6.20;99.90
59148;DHT22;44930;52.878;6.168;2023-01-15T07:53:48;6.30;99.90
59148;DHT22;44930;52.878;6.168;2023-01-15T07:56:14;6.40;99.90
59148;DHT22;44930;52.878;6.168;2023-01-15T07:58:39;6.30;99.90
59148;DHT22;44930;52.878;6.168;2023-01-15T08:01:05;6.30;99.90
59148;DHT22;44930;52.878;6.168;2023-01-15T08:05:57;6.40;99.90
59148;DHT22;44930;52.878;6.168;2023-01-15T08:08:22;6.40;99.90
59148;DHT22;44930;52.878;6.168;2023-01-15T08:10:48;6.30;99.90
59148;DHT22;44930;52.878;6.168;2023-01-15T08:13:32;6.40;99.90
59148;DHT22;44930;52.878;6.168;2023-01-15T08:16:16;6.50;99.90
59148;DHT22;44930;52.878;6.168;2023-01-15T08:18:42;6.40;99.90
59148;DHT22;44930;52.878;6.168;2023-01-15T08:21:14;6.70;99.90
59148;DHT22;44930;52.878;6.168;2023-01-15T08:23:40;6.70;99.90
59148;DHT22;44930;52.878;6.168;2023-01-15T08:26:07;6.70;99.90
59148;DHT22;44930;52.878;6.168;2023-01-15T08:30:59;6.60;99.90
59148;DHT22;44930;52.878;6.168;2023-01-15T08:33:24;6.50;99.90
59148;DHT22;44930;52.878;6.168;2023-01-15T08:35:50;6.60;99.90
59148;DHT22;44930;52.878;6.168;2023-01-15T08:38:15;6.60;99.90
59148;DHT22;44930;52.878;6.168;2023-01-15T08:40:41;6.70;99.90
59148;DHT22;44930;52.878;6.168;2023-01-15T08:43:29;6.50;99.90
59148;DHT22;44930;52.878;6.168;2023-01-15T08:45:56;6.60;99.90
59148;DHT22;44930;52.878;6.168;2023-01-15T08:48:22;6.50;99.90
59148;DHT22;44930;52.878;6.168;2023-01-15T08:50:48;6.30;99.90
59148;DHT22;44930;52.878;6.168;2023-01-15T08:53:16;6.20;99.90
59148;DHT22;44930;52.878;6.168;2023-01-15T08:55:43;6.30;99.90
59148;DHT22;44930;52.878;6.168;2023-01-15T08:58:09;6.30;99.90
59148;DHT22;44930;52.878;6.168;2023-01-15T09:00:35;6.20;99.90
59148;DHT22;44930;52.878;6.168;2023-01-15T09:03:00;6.20;99.90
59148;DHT22;44930;52.878;6.168;2023-01-15T09:05:26;6.10;99.90
59148;DHT22;44930;52.878;6.168;2023-01-15T09:07:52;5.80;99.90
59148;DHT22;44930;52.878;6.168;2023-01-15T09:12:45;5.70;99.90
59148;DHT22;44930;52.878;6.168;2023-01-15T09:15:10;6.00;99.90
59148;DHT22;44930;52.878;6.168;2023-01-15T09:17:36;5.90;99.90
59148;DHT22;44930;52.878;6.168;2023-01-15T09:22:31;5.80;99.90
59148;DHT22;44930;52.878;6.168;2023-01-15T09:24:57;5.80;99.90
59148;DHT22;44930;52.878;6.168;2023-01-15T09:27:23;5.90;99.90
59148;DHT22;44930;52.878;6.168;2023-01-15T09:29:48;6.00;99.90
59148;DHT22;44930;52.878;6.168;2023-01-15T09:32:14;5.80;99.90
59148;DHT22;44930;52.878;6.168;2023-01-15T09:34:39;5.60;99.90
59148;DHT22;44930;52.878;6.168;2023-01-15T09:37:05;5.90;99.90
59148;DHT22;44930;52.878;6.168;2023-01-15T09:39:30;6.20;99.90
59148;DHT22;44930;52.878;6.168;2023-01-15T09:42:24;5.80;99.90
59148;DHT22;44930;52.878;6.168;2023-01-15T09:45:14;5.90;99.90
59148;DHT22;44930;52.878;6.168;2023-01-15T09:50:48;6.20;99.90
59148;DHT22;44930;52.878;6.168;2023-01-15T09:53:36;5.60;99.90
59148;DHT22;44930;52.878;6.168;2023-01-15T09:56:18;5.90;99.90
59148;DHT22;44930;52.878;6.168;2023-01-15T09:58:44;5.90;99.90
59148;DHT22;44930;52.878;6.168;2023-01-15T10:01:15;6.00;99.90
59148;DHT22;44930;52.878;6.168;2023-01-15T10:03:45;6.00;99.90
59148;DHT22;44930;52.878;6.168;2023-01-15T10:06:18;6.10;99.90
59148;DHT22;44930;52.878;6.168;2023-01-15T10:08:47;6.10;99.90
59148;DHT22;44930;52.878;6.168;2023-01-15T10:13:48;6.20;99.90
59148;DHT22;44930;52.878;6.168;2023-01-15T10:16:25;6.00;99.90
59148;DHT22;44930;52.878;6.168;2023-01-15T10:18:51;6.10;99.90
59148;DHT22;44930;52.878;6.168;2023-01-15T10:24:14;6.30;99.90
59148;DHT22;44930;52.878;6.168;2023-01-15T10:26:53;6.20;99.90
59148;DHT22;44930;52.878;6.168;2023-01-15T10:29:48;6.40;99.90
59148;DHT22;44930;52.878;6.168;2023-01-15T10:32:29;6.30;99.90
59148;DHT22;44930;52.878;6.168;2023-01-15T10:43:49;6.20;99.90
59148;DHT22;44930;52.878;6.168;2023-01-15T10:46:23;5.80;99.90
59148;DHT22;44930;52.878;6.168;2023-01-15T10:48:55;6.10;99.90
59148;DHT22;44930;52.878;6.168;2023-01-15T10:57:22;6.30;99.90
59148;DHT22;44930;52.878;6.168;2023-01-15T11:00:00;6.30;99.90
59148;DHT22;44930;52.878;6.168;2023-01-15T11:05:01;6.40;99.90
59148;DHT22;44930;52.878;6.168;2023-01-15T11:07:37;6.60;99.90
59148;DHT22;44930;52.878;6.168;2023-01-15T11:10:10;6.70;99.90
59148;DHT22;44930;52.878;6.168;2023-01-15T11:12:53;6.50;99.90
59148;DHT22;44930;52.878;6.168;2023-01-15T11:18:30;6.90;99.90
59148;DHT22;44930;52.878;6.168;2023-01-15T11:21:18;7.20;99.90
59148;DHT22;44930;52.878;6.168;2023-01-15T11:23:44;7.30;99.90
59148;DHT22;44930;52.878;6.168;2023-01-15T11:26:26;7.50;99.90
59148;DHT22;44930;52.878;6.168;2023-01-15T11:28:53;7.60;99.90
59148;DHT22;44930;52.878;6.168;2023-01-15T11:31:19;7.50;99.90
59148;DHT22;44930;52.878;6.168;2023-01-15T11:33:58;7.90;99.90
59148;DHT22;44930;52.878;6.168;2023-01-15T11:36:26;7.60;99.90
59148;DHT22;44930;52.878;6.168;2023-01-15T11:38:52;7.60;99.90
59148;DHT22;44930;52.878;6.168;2023-01-15T11:43:53;8.30;99.90
59148;DHT22;44930;52.878;6.168;2023-01-15T11:46:38;7.90;99.90
59148;DHT22;44930;52.878;6.168;2023-01-15T11:52:10;7.90;99.90
59148;DHT22;44930;52.878;6.168;2023-01-15T11:54:42;8.00;99.90
59148;DHT22;44930;52.878;6.168;2023-01-15T11:57:09;7.90;99.90
59148;DHT22;44930;52.878;6.168;2023-01-15T11:59:36;8.40;99.90
59148;DHT22;44930;52.878;6.168;2023-01-15T12:07:04;8.10;99.90
59148;DHT22;44930;52.878;6.168;2023-01-15T12:09:36;8.00;99.90
59148;DHT22;44930;52.878;6.168;2023-01-15T12:12:26;7.90;99.90
59148;DHT22;44930;52.878;6.168;2023-01-15T12:31:39;8.00;99.90
59148;DHT22;44930;52.878;6.168;2023-01-15T12:34:09;8.20;99.90
59148;DHT22;44930;52.878;6.168;2023-01-15T12:36:45;8.20;99.90
59148;DHT22;44930;52.878;6.168;2023-01-15T12:39:21;8.30;99.90
59148;DHT22;44930;52.878;6.168;2023-01-15T12:41:53;8.00;99.90
59148;DHT22;44930;52.878;6.168;2023-01-15T12:44:50;8.50;99.90
59148;DHT22;44930;52.878;6.168;2023-01-15T12:48:03;7.90;99.90
59148;DHT22;44930;52.878;6.168;2023-01-15T12:53:38;8.40;99.90
59148;DHT22;44930;52.878;6.168;2023-01-15T12:59:23;8.40;99.90
59148;DHT22;44930;52.878;6.168;2023-01-15T13:07:35;7.90;99.90
59148;DHT22;44930;52.878;6.168;2023-01-15T13:10:10;8.20;99.90
59148;DHT22;44930;52.878;6.168;2023-01-15T13:12:37;8.10;99.90
59148;DHT22;44930;52.878;6.168;2023-01-15T13:15:03;8.00;99.90
59148;DHT22;44930;52.878;6.168;2023-01-15T13:18:24;8.00;99.90
59148;DHT22;44930;52.878;6.168;2023-01-15T13:20:48;7.60;99.90
59148;DHT22;44930;52.878;6.168;2023-01-15T13:23:35;7.70;99.90
59148;DHT22;44930;52.878;6.168;2023-01-15T13:36:52;7.00;99.90
59148;DHT22;44930;52.878;6.168;2023-01-15T13:39:21;6.90;99.90
59148;DHT22;44930;52.878;6.168;2023-01-15T13:44:37;6.70;99.90
59148;DHT22;44930;52.878;6.168;2023-01-15T13:47:10;6.40;99.90
59148;DHT22;44930;52.878;6.168;2023-01-15T13:52:06;5.90;99.90
59148;DHT22;44930;52.878;6.168;2023-01-15T13:54:39;5.90;99.90
59148;DHT22;44930;52.878;6.168;2023-01-15T13:57:35;5.60;99.90
59148;DHT22;44930;52.878;6.168;2023-01-15T14:00:05;5.60;99.90
59148;DHT22;44930;52.878;6.168;2023-01-15T14:02:33;5.80;99.90
59148;DHT22;44930;52.878;6.168;2023-01-15T14:05:00;5.70;99.90
59148;DHT22;44930;52.878;6.168;2023-01-15T14:32:46;6.40;99.90
59148;DHT22;44930;52.878;6.168;2023-01-15T14:35:18;6.40;99.90
59148;DHT22;44930;52.878;6.168;2023-01-15T14:40:18;6.30;99.90
59148;DHT22;44930;52.878;6.168;2023-01-15T14:42:48;6.30;99.90
59148;DHT22;44930;52.878;6.168;2023-01-15T14:45:39;6.30;99.90
59148;DHT22;44930;52.878;6.168;2023-01-15T14:51:06;6.50;99.90
59148;DHT22;44930;52.878;6.168;2023-01-15T14:53:39;6.60;99.90
59148;DHT22;44930;52.878;6.168;2023-01-15T14:56:28;6.70;99.90
59148;DHT22;44930;52.878;6.168;2023-01-15T14:59:16;6.50;99.90
59148;DHT22;44930;52.878;6.168;2023-01-15T15:04:20;6.50;99.90
59148;DHT22;44930;52.878;6.168;2023-01-15T15:06:57;6.40;99.90
59148;DHT22;44930;52.878;6.168;2023-01-15T15:09:33;6.50;99.90
59148;DHT22;44930;52.878;6.168;2023-01-15T15:12:12;6.40;99.90
59148;DHT22;44930;52.878;6.168;2023-01-15T15:14:59;6.70;99.90
59148;DHT22;44930;52.878;6.168;2023-01-15T15:22:29;6.50;99.90
59148;DHT22;44930;52.878;6.168;2023-01-15T15:25:00;6.50;99.90
59148;DHT22;44930;52.878;6.168;2023-01-15T15:27:30;6.50;99.90
59148;DHT22;44930;52.878;6.168;2023-01-15T15:30:06;6.60;99.90
59148;DHT22;44930;52.878;6.168;2023-01-15T15:35:05;6.30;99.90
59148;DHT22;44930;52.878;6.168;2023-01-15T15:37:43;6.60;99.90
59148;DHT22;44930;52.878;6.168;2023-01-15T15:40:15;6.40;99.90
59148;DHT22;44930;52.878;6.168;2023-01-15T15:45:52;6.50;99.90
59148;DHT22;44930;52.878;6.168;2023-01-15T15:48:37;6.30;99.90
59148;DHT22;44930;52.878;6.168;2023-01-15T15:51:34;6.60;99.90
59148;DHT22;44930;52.878;6.168;2023-01-15T15:54:25;6.60;99.90
59148;DHT22;44930;52.878;6.168;2023-01-15T15:57:13;6.50;99.90
59148;DHT22;44930;52.878;6.168;2023-01-15T16:02:21;6.60;99.90
59148;DHT22;44930;52.878;6.168;2023-01-15T16:07:30;6.40;99.90
59148;DHT22;44930;52.878;6.168;2023-01-15T16:10:15;6.60;99.90
59148;DHT22;44930;52.878;6.168;2023-01-15T16:12:47;6.80;99.90
59148;DHT22;44930;52.878;6.168;2023-01-15T16:15:15;6.40;99.90
59148;DHT22;44930;52.878;6.168;2023-01-15T16:17:41;6.30;99.90
59148;DHT22;44930;52.878;6.168;2023-01-15T16:20:18;6.20;99.90
59148;DHT22;44930;52.878;6.168;2023-01-15T16:22:54;6.50;99.90
59148;DHT22;44930;52.878;6.168;2023-01-15T16:25:23;6.40;99.90
59148;DHT22;44930;52.878;6.168;2023-01-15T16:27:49;6.40;99.90
59148;DHT22;44930;52.878;6.168;2023-01-15T16:30:15;6.20;99.90
59148;DHT22;44930;52.878;6.168;2023-01-15T16:32:41;6.30;99.90
59148;DHT22;44930;52.878;6.168;2023-01-15T16:40:20;6.20;99.90
59148;DHT22;44930;52.878;6.168;2023-01-15T16:42:47;6.10;99.90
59148;DHT22;44930;52.878;6.168;2023-01-15T16:45:24;6.20;99.90
59148;DHT22;44930;52.878;6.168;2023-01-15T16:48:35;6.10;99.90
59148;DHT22;44930;52.878;6.168;2023-01-15T16:51:34;6.10;99.90
59148;DHT22;44930;52.878;6.168;2023-01-15T16:54:02;6.10;99.90
59148;DHT22;44930;52.878;6.168;2023-01-15T16:59:52;6.30;99.90
59148;DHT22;44930;52.878;6.168;2023-01-15T17:02:20;6.00;99.90
59148;DHT22;44930;52.878;6.168;2023-01-15T17:04:46;6.10;99.90
59148;DHT22;44930;52.878;6.168;2023-01-15T17:09:52;6.00;99.90
59148;DHT22;44930;52.878;6.168;2023-01-15T17:14:50;6.00;99.90
59148;DHT22;44930;52.878;6.168;2023-01-15T17:22:23;6.00;99.90
59148;DHT22;44930;52.878;6.168;2023-01-15T17:24:51;5.90;99.90
59148;DHT22;44930;52.878;6.168;2023-01-15T17:27:17;5.80;99.90
59148;DHT22;44930;52.878;6.168;2023-01-15T17:29:42;5.90;99.90
59148;DHT22;44930;52.878;6.168;2023-01-15T17:32:13;5.90;99.90
59148;DHT22;44930;52.878;6.168;2023-01-15T17:34:40;5.80;99.90
59148;DHT22;44930;52.878;6.168;2023-01-15T17:37:05;5.70;99.90
59148;DHT22;44930;52.878;6.168;2023-01-15T17:39:31;5.70;99.90
59148;DHT22;44930;52.878;6.168;2023-01-15T17:41:56;5.90;99.90
59148;DHT22;44930;52.878;6.168;2023-01-15T17:44:22;5.80;99.90
59148;DHT22;44930;52.878;6.168;2023-01-15T17:46:48;5.60;99.90
59148;DHT22;44930;52.878;6.168;2023-01-15T17:49:13;5.60;99.90
59148;DHT22;44930;52.878;6.168;2023-01-15T17:51:39;5.70;99.90
59148;DHT22;44930;52.878;6.168;2023-01-15T17:54:05;5.60;99.90
59148;DHT22;44930;52.878;6.168;2023-01-15T17:56:31;5.60;99.90
59148;DHT22;44930;52.878;6.168;2023-01-15T17:59:15;5.70;99.90
59148;DHT22;44930;52.878;6.168;2023-01-15T18:01:59;5.80;99.90
59148;DHT22;44930;52.878;6.168;2023-01-15T18:04:50;5.80;99.90
59148;DHT22;44930;52.878;6.168;2023-01-15T18:07:36;5.70;99.90
59148;DHT22;44930;52.878;6.168;2023-01-15T18:12:31;5.90;99.90
59148;DHT22;44930;52.878;6.168;2023-01-15T18:14:56;6.00;99.90
59148;DHT22;44930;52.878;6.168;2023-01-15T18:17:22;5.90;99.90
59148;DHT22;44930;52.878;6.168;2023-01-15T18:22:14;6.00;99.90
59148;DHT22;44930;52.878;6.168;2023-01-15T18:24:40;5.90;99.90
59148;DHT22;44930;52.878;6.168;2023-01-15T18:27:05;6.00;99.90
59148;DHT22;44930;52.878;6.168;2023-01-15T18:29:31;6.00;99.90
59148;DHT22;44930;52.878;6.168;2023-01-15T18:31:56;6.00;99.90
59148;DHT22;44930;52.878;6.168;2023-01-15T18:34:22;6.10;99.90
59148;DHT22;44930;52.878;6.168;2023-01-15T18:36:48;6.20;99.90
59148;DHT22;44930;52.878;6.168;2023-01-15T18:39:13;6.30;99.90
59148;DHT22;44930;52.878;6.168;2023-01-15T18:41:39;6.20;99.90
59148;DHT22;44930;52.878;6.168;2023-01-15T18:44:12;6.20;99.90
59148;DHT22;44930;52.878;6.168;2023-01-15T18:46:59;6.10;99.90
59148;DHT22;44930;52.878;6.168;2023-01-15T18:49:25;6.20;99.90
59148;DHT22;44930;52.878;6.168;2023-01-15T18:51:51;6.30;99.90
59148;DHT22;44930;52.878;6.168;2023-01-15T18:54:36;6.30;99.90
59148;DHT22;44930;52.878;6.168;2023-01-15T18:57:02;6.20;99.90
59148;DHT22;44930;52.878;6.168;2023-01-15T18:59:28;6.20;99.90
59148;DHT22;44930;52.878;6.168;2023-01-15T19:01:54;6.20;99.90
59148;DHT22;44930;52.878;6.168;2023-01-15T19:04:20;5.90;99.90
59148;DHT22;44930;52.878;6.168;2023-01-15T19:06:46;6.20;99.90
59148;DHT22;44930;52.878;6.168;2023-01-15T19:09:12;6.20;99.90
59148;DHT22;44930;52.878;6.168;2023-01-15T19:11:41;6.00;99.90
59148;DHT22;44930;52.878;6.168;2023-01-15T19:14:07;6.10;99.90
59148;DHT22;44930;52.878;6.168;2023-01-15T19:16:51;6.00;99.90
59148;DHT22;44930;52.878;6.168;2023-01-15T19:19:35;5.90;99.90
59148;DHT22;44930;52.878;6.168;2023-01-15T19:22:01;5.90;99.90
59148;DHT22;44930;52.878;6.168;2023-01-15T19:32:04;5.80;99.90
59148;DHT22;44930;52.878;6.168;2023-01-15T19:34:30;5.70;99.90
59148;DHT22;44930;52.878;6.168;2023-01-15T19:39:24;5.70;99.90
59148;DHT22;44930;52.878;6.168;2023-01-15T19:41:49;5.70;99.90
59148;DHT22;44930;52.878;6.168;2023-01-15T19:44:33;5.60;99.90
59148;DHT22;44930;52.878;6.168;2023-01-15T19:47:25;5.50;99.90
59148;DHT22;44930;52.878;6.168;2023-01-15T19:50:12;5.60;99.90
59148;DHT22;44930;52.878;6.168;2023-01-15T19:52:45;5.60;99.90
59148;DHT22;44930;52.878;6.168;2023-01-15T19:55:11;5.50;99.90
59148;DHT22;44930;52.878;6.168;2023-01-15T19:57:40;5.40;99.90
59148;DHT22;44930;52.878;6.168;2023-01-15T20:00:11;5.40;99.90
59148;DHT22;44930;52.878;6.168;2023-01-15T20:02:37;5.30;99.90